createdAt,value
2019-02-20T00:01:21.196Z,15.93
2019-02-20T00:06:22.291Z,17.03
2019-02-20T00:11:23.392Z,17.97
2019-02-20T00:16:24.492Z,16.57
2019-02-20T00:21:25.614Z,16.20
2019-02-20T00:26:26.710Z,14.63
2019-02-20T00:31:27.909Z,14.53
2019-02-20T00:36:29.024Z,14.50
2019-02-20T00:41:30.124Z,13.37
2019-02-20T00:46:33.143Z,12.70
2019-02-20T00:51:45.155Z,12.17
2019-02-20T00:56:46.255Z,11.87
2019-02-20T01:01:47.351Z,12.63
2019-02-20T01:06:48.442Z,13.70
2019-02-20T01:11:49.701Z,12.57
2019-02-20T01:16:50.807Z,13.47
2019-02-20T01:21:51.931Z,12.90
2019-02-20T01:26:53.126Z,14.23
2019-02-20T01:31:54.225Z,14.03
2019-02-20T01:36:55.329Z,13.87
2019-02-20T01:41:56.519Z,13.67
2019-02-20T01:46:57.632Z,14.27
2019-02-20T01:51:58.734Z,13.97
2019-02-20T01:56:59.800Z,13.13
2019-02-20T02:02:00.984Z,13.67
2019-02-20T02:07:02.212Z,12.23
2019-02-20T02:12:03.398Z,11.90
2019-02-20T02:17:04.902Z,12.30
2019-02-20T02:22:06.008Z,12.47
2019-02-20T02:27:07.111Z,13.67
2019-02-20T02:32:08.215Z,13.30
2019-02-20T02:37:09.312Z,13.83
2019-02-20T02:42:10.418Z,13.97
2019-02-20T02:47:11.535Z,13.47
2019-02-20T02:52:12.629Z,12.40
2019-02-20T02:57:13.726Z,12.87
2019-02-20T03:02:14.824Z,12.23
2019-02-20T03:07:15.919Z,12.97
2019-02-20T03:12:17.004Z,12.57
2019-02-20T03:17:18.115Z,10.40
2019-02-20T03:22:19.236Z,11.67
2019-02-20T03:27:20.334Z,12.10
2019-02-20T03:32:21.445Z,13.67
2019-02-20T03:37:22.620Z,13.27
2019-02-20T03:42:23.728Z,13.50
2019-02-20T03:47:24.841Z,15.93
2019-02-20T03:52:25.963Z,13.33
2019-02-20T03:57:27.261Z,13.30
2019-02-20T04:02:28.363Z,14.30
2019-02-20T04:07:29.464Z,12.80
2019-02-20T04:12:30.576Z,12.73
2019-02-20T04:17:31.768Z,14.03
2019-02-20T04:22:32.905Z,13.30
2019-02-20T04:27:34.088Z,12.43
2019-02-20T04:32:35.190Z,12.50
2019-02-20T04:37:36.278Z,12.67
2019-02-20T04:42:37.375Z,12.87
2019-02-20T04:47:38.492Z,15.20
2019-02-20T04:52:39.592Z,14.63
2019-02-20T04:57:40.687Z,14.13
2019-02-20T05:02:41.811Z,12.43
2019-02-20T05:07:42.914Z,15.00
2019-02-20T05:12:44.093Z,14.00
2019-02-20T05:17:45.184Z,14.20
2019-02-20T05:22:46.310Z,14.53
2019-02-20T05:27:47.402Z,15.00
2019-02-20T05:32:48.502Z,14.63
2019-02-20T05:37:49.596Z,14.63
2019-02-20T05:42:50.705Z,14.13
2019-02-20T05:47:51.792Z,14.40
2019-02-20T05:52:52.893Z,15.13
2019-02-20T05:57:53.987Z,14.03
2019-02-20T06:02:55.088Z,14.80
2019-02-20T06:07:56.207Z,16.40
2019-02-20T06:12:57.398Z,14.30
2019-02-20T06:17:58.505Z,16.40
2019-02-20T06:22:59.703Z,16.60
2019-02-20T06:28:00.804Z,18.40
2019-02-20T06:33:01.900Z,14.47
2019-02-20T06:38:03.009Z,19.57
2019-02-20T06:43:04.220Z,13.80
2019-02-20T06:48:05.423Z,12.73
2019-02-20T06:53:06.529Z,13.07
2019-02-20T06:58:07.627Z,11.93
2019-02-20T07:03:08.732Z,13.23
2019-02-20T07:08:39.635Z,12.83
2019-02-20T07:13:56.758Z,12.53
2019-02-20T07:19:01.687Z,13.13
2019-02-20T07:24:12.567Z,18.07
2019-02-20T07:29:43.048Z,45.67
2019-02-20T07:34:44.145Z,21.73
2019-02-20T07:39:45.243Z,15.20
2019-02-20T07:44:46.341Z,12.37
2019-02-20T07:49:47.489Z,11.60
2019-02-20T07:54:48.699Z,11.80
2019-02-20T07:59:49.791Z,11.40
2019-02-20T08:04:50.897Z,10.67
2019-02-20T08:09:52.002Z,10.90
2019-02-20T08:14:53.092Z,11.00
2019-02-20T08:19:55.870Z,20.33
2019-02-20T08:24:57.003Z,20.33
2019-02-20T08:29:58.095Z,19.30
2019-02-20T08:34:59.179Z,20.40
2019-02-20T08:40:00.425Z,20.83
2019-02-20T08:45:01.676Z,18.73
2019-02-20T08:50:05.988Z,16.93
2019-02-20T08:55:09.186Z,15.67
2019-02-20T09:00:13.564Z,14.73
2019-02-20T09:05:14.697Z,15.37
2019-02-20T09:10:17.362Z,15.30
2019-02-20T09:15:18.815Z,16.33
2019-02-20T09:20:19.931Z,15.17
2019-02-20T09:25:21.024Z,14.00
2019-02-20T09:30:28.536Z,12.83
2019-02-20T09:35:26.003Z,12.17
2019-02-20T09:40:27.099Z,12.33
2019-02-20T09:45:28.295Z,11.87
2019-02-20T09:50:29.423Z,12.20
2019-02-20T09:55:30.602Z,12.87
2019-02-20T10:00:31.714Z,13.03
2019-02-20T10:05:32.795Z,12.73
2019-02-20T10:10:33.905Z,12.40
2019-02-20T10:15:35.005Z,12.13
2019-02-20T10:20:36.127Z,12.17
2019-02-20T10:25:37.261Z,11.83
2019-02-20T10:30:38.356Z,12.07
2019-02-20T10:35:39.459Z,12.73
2019-02-20T10:40:40.565Z,10.57
2019-02-20T10:45:41.667Z,9.93
2019-02-20T10:50:42.779Z,9.57
2019-02-20T10:55:43.880Z,10.40
2019-02-20T11:00:45.072Z,9.43
2019-02-20T11:05:46.171Z,9.40
2019-02-20T11:10:47.287Z,9.20
2019-02-20T11:15:48.475Z,10.07
2019-02-20T11:20:49.704Z,7.80
2019-02-20T11:25:50.800Z,7.60
2019-02-20T11:30:51.903Z,6.70
2019-02-20T11:35:53.004Z,5.97
2019-02-20T11:40:54.080Z,5.00
2019-02-20T11:45:55.187Z,5.70
2019-02-20T11:50:56.323Z,5.80
2019-02-20T11:55:57.629Z,6.10
2019-02-20T12:00:58.824Z,6.10
2019-02-20T12:05:59.933Z,5.30
2019-02-20T12:11:01.128Z,4.33
2019-02-20T12:16:02.224Z,4.70
2019-02-20T12:21:03.349Z,5.87
2019-02-20T12:26:04.678Z,4.43
2019-02-20T12:31:05.962Z,5.97
2019-02-20T12:36:07.061Z,8.37
2019-02-20T12:41:08.163Z,5.13
2019-02-20T12:46:09.373Z,5.30
2019-02-20T12:51:10.497Z,5.20
2019-02-20T12:56:11.604Z,4.80
2019-02-20T13:01:12.732Z,4.80
2019-02-20T13:06:13.924Z,4.90
2019-02-20T13:11:15.023Z,5.00
2019-02-20T13:16:16.140Z,4.87
2019-02-20T13:21:17.256Z,5.27
2019-02-20T13:26:18.632Z,5.07
2019-02-20T13:31:19.740Z,7.67
2019-02-20T13:36:20.952Z,5.53
2019-02-20T13:41:22.157Z,4.90
2019-02-20T13:46:23.275Z,5.27
2019-02-20T13:51:24.399Z,5.37
2019-02-20T13:56:27.280Z,5.13
2019-02-20T14:01:28.380Z,5.53
2019-02-20T14:06:29.675Z,6.00
2019-02-20T14:11:30.778Z,5.47
2019-02-20T14:16:31.999Z,5.77
2019-02-20T14:21:33.105Z,4.90
2019-02-20T14:26:34.355Z,4.97
2019-02-20T14:31:35.953Z,4.97
2019-02-20T14:36:37.055Z,4.80
2019-02-20T14:41:38.177Z,5.43
2019-02-20T14:46:39.303Z,5.47
2019-02-20T14:51:40.977Z,5.73
2019-02-20T14:56:42.188Z,5.47
2019-02-20T15:01:43.506Z,5.17
2019-02-20T15:06:45.060Z,5.43
2019-02-20T15:11:46.277Z,6.00
2019-02-20T15:16:47.500Z,5.67
2019-02-20T15:21:48.776Z,6.07
2019-02-20T15:26:50.097Z,6.00
2019-02-20T15:31:51.205Z,5.53
2019-02-20T15:36:52.314Z,6.00
2019-02-20T15:41:55.101Z,5.57
2019-02-20T15:46:56.223Z,6.90
2019-02-20T15:51:57.336Z,6.13
2019-02-20T15:56:58.449Z,7.07
2019-02-20T16:01:59.972Z,6.60
2019-02-20T16:07:01.213Z,7.07
2019-02-20T16:12:02.536Z,7.90
2019-02-20T16:17:03.933Z,10.00
2019-02-20T16:22:05.263Z,6.73
2019-02-20T16:27:06.376Z,7.10
2019-02-20T16:32:07.479Z,7.43
2019-02-20T16:37:08.595Z,7.30
2019-02-20T16:42:09.691Z,12.70
2019-02-20T16:47:10.808Z,8.17
2019-02-20T16:52:11.922Z,8.83
2019-02-20T16:57:13.046Z,8.50
2019-02-20T17:02:14.320Z,8.67
2019-02-20T17:07:15.424Z,10.40
2019-02-20T17:12:18.110Z,11.30
2019-02-20T17:17:19.306Z,12.40
2019-02-20T17:22:20.497Z,11.93
2019-02-20T17:27:21.620Z,9.67
2019-02-20T17:32:22.836Z,10.93
2019-02-20T17:37:24.136Z,12.50
2019-02-20T17:42:25.247Z,19.80
2019-02-20T17:47:26.453Z,18.00
2019-02-20T17:52:27.684Z,13.43
2019-02-20T17:57:28.885Z,12.70
2019-02-20T18:02:30.083Z,13.07
2019-02-20T18:07:31.214Z,13.33
2019-02-20T18:12:32.337Z,12.63
2019-02-20T18:17:33.561Z,13.37
2019-02-20T18:22:34.719Z,11.90
2019-02-20T18:27:35.821Z,13.70
2019-02-20T18:32:36.949Z,13.50
2019-02-20T18:37:38.278Z,12.87
2019-02-20T18:42:39.390Z,12.07
2019-02-20T18:47:40.590Z,13.33
2019-02-20T18:52:41.723Z,11.97
2019-02-20T18:57:42.843Z,11.70
2019-02-20T19:02:44.052Z,12.23
2019-02-20T19:07:45.156Z,14.37
2019-02-20T19:12:55.744Z,13.43
2019-02-20T19:18:06.515Z,12.40
2019-02-20T19:23:26.770Z,12.80
2019-02-20T19:28:44.290Z,12.13
2019-02-20T19:34:02.706Z,12.27
2019-02-20T19:39:22.684Z,13.53
2019-02-20T19:44:27.660Z,12.40
2019-02-20T19:49:50.871Z,14.50
2019-02-20T19:55:02.179Z,17.67
2019-02-20T20:00:19.055Z,14.93
2019-02-20T20:05:33.052Z,12.23
2019-02-20T20:11:05.484Z,12.53
2019-02-20T20:16:45.640Z,13.03
2019-02-20T20:21:59.901Z,13.00
2019-02-20T20:27:41.295Z,13.07
2019-02-20T20:33:10.613Z,13.33
2019-02-20T20:38:30.832Z,13.90
2019-02-20T20:43:54.024Z,13.40
2019-02-20T20:49:05.127Z,13.90
2019-02-20T20:54:19.327Z,14.60
2019-02-20T20:59:36.299Z,14.20
2019-02-20T21:05:10.229Z,12.97
2019-02-20T21:10:30.199Z,12.43
2019-02-20T21:15:50.429Z,14.17
2019-02-20T21:21:11.923Z,12.50
2019-02-20T21:26:29.159Z,12.27
2019-02-20T21:31:39.890Z,13.27
2019-02-20T21:37:04.529Z,14.03
2019-02-20T21:42:28.005Z,13.10
2019-02-20T21:47:48.296Z,12.80
2019-02-20T21:53:02.074Z,12.03
2019-02-20T21:58:19.047Z,13.60
2019-02-20T22:03:40.852Z,13.87
2019-02-20T22:09:11.792Z,14.10
2019-02-20T22:14:33.089Z,14.10
2019-02-20T22:19:47.349Z,15.20
2019-02-20T22:25:10.869Z,14.40
2019-02-20T22:30:25.016Z,14.10
2019-02-20T22:35:38.935Z,15.20
2019-02-20T22:41:05.626Z,16.63
2019-02-20T22:46:35.149Z,14.37
2019-02-20T22:52:01.351Z,14.90
2019-02-20T22:57:38.524Z,14.70
2019-02-20T23:03:01.335Z,13.60
2019-02-20T23:08:12.284Z,12.73
2019-02-20T23:13:17.189Z,14.23
2019-02-20T23:18:18.285Z,14.07
2019-02-20T23:23:19.404Z,12.90
2019-02-20T23:28:20.507Z,14.63
2019-02-20T23:33:21.613Z,12.67
2019-02-20T23:38:22.699Z,12.00
2019-02-20T23:43:23.790Z,12.13
2019-02-20T23:48:24.879Z,11.87
2019-02-20T23:53:25.974Z,11.00
2019-02-20T23:58:27.077Z,11.00
